createdAt,value
2023-02-12T12:59:27.303Z,98444.81
2023-02-12T13:00:38.100Z,98447.06
2023-02-12T13:01:54.907Z,98446.31
2023-02-12T13:03:05.354Z,98433.63
2023-02-12T13:04:40.767Z,98439.00
2023-02-12T13:05:51.231Z,98447.44
2023-02-12T13:07:03.294Z,98438.63
2023-02-12T13:08:33.811Z,98437.41
2023-02-12T13:10:09.540Z,98434.59
2023-02-12T13:11:33.367Z,98423.53
2023-02-12T13:12:40.936Z,98431.09
2023-02-12T13:13:47.292Z,98428.53
2023-02-12T13:14:57.716Z,98427.88
2023-02-12T13:16:21.619Z,98426.19
2023-02-12T13:17:45.985Z,98430.19
2023-02-12T13:19:29.375Z,98436.69
2023-02-12T13:20:47.416Z,98423.47
2023-02-12T13:21:58.916Z,98428.88
2023-02-12T13:23:07.491Z,98421.78
2023-02-12T13:24:30.171Z,98413.31
2023-02-12T13:25:42.549Z,98424.16
2023-02-12T13:26:53.021Z,98429.16
2023-02-12T13:27:56.504Z,98417.84
2023-02-12T13:29:09.893Z,98424.72
2023-02-12T13:30:14.263Z,98432.22
2023-02-12T13:31:35.736Z,98425.28
2023-02-12T13:32:43.447Z,98424.16
2023-02-12T13:33:50.290Z,98419.63
2023-02-12T13:34:54.414Z,98414.78
2023-02-12T13:36:00.290Z,98419.53
2023-02-12T13:37:04.117Z,98427.38
2023-02-12T13:38:08.683Z,98430.09
2023-02-12T13:39:41.593Z,98420.38
2023-02-12T13:40:43.210Z,98414.00
2023-02-12T13:41:54.054Z,98415.72
2023-02-12T13:43:00.032Z,98417.25
2023-02-12T13:44:26.275Z,98416.94
2023-02-12T13:45:33.607Z,98414.34
2023-02-12T13:47:12.681Z,98413.66
2023-02-12T13:48:32.659Z,98406.63
2023-02-12T13:49:52.412Z,98409.44
2023-02-12T13:51:01.350Z,98409.66
2023-02-12T13:52:10.553Z,98406.63
2023-02-12T13:53:22.905Z,98401.13
2023-02-12T13:55:12.607Z,98402.69
2023-02-12T13:56:29.052Z,98397.56
2023-02-12T13:57:30.602Z,98404.63
2023-02-12T13:58:35.052Z,98407.88
2023-02-12T13:59:36.462Z,98403.38
2023-02-12T14:00:50.644Z,98399.13
2023-02-12T14:01:52.960Z,98395.00
2023-02-12T14:02:54.452Z,98395.19
2023-02-12T14:03:55.840Z,98395.00
2023-02-12T14:05:01.225Z,98394.59
2023-02-12T14:06:16.336Z,98395.97
2023-02-12T14:07:19.462Z,98399.88
2023-02-12T14:08:42.278Z,98401.22
2023-02-12T14:09:59.785Z,98399.91
2023-02-12T14:11:10.590Z,98398.28
2023-02-12T14:12:27.267Z,98395.13
2023-02-12T14:13:34.053Z,98400.88
2023-02-12T14:14:40.742Z,98392.13
2023-02-12T14:15:45.037Z,98381.19
2023-02-12T14:16:46.666Z,98391.63
2023-02-12T14:18:04.025Z,98400.94
2023-02-12T14:20:03.265Z,98392.00
2023-02-12T14:21:13.461Z,98392.16
2023-02-12T14:22:35.041Z,98387.19
2023-02-12T14:23:36.831Z,98386.00
2023-02-12T14:24:38.163Z,98394.31
2023-02-12T14:25:46.859Z,98374.41
2023-02-12T14:26:48.484Z,98381.97
2023-02-12T14:28:06.507Z,98387.44
2023-02-12T14:29:21.098Z,98376.34
2023-02-12T14:30:33.995Z,98381.22
2023-02-12T14:31:37.656Z,98377.13
2023-02-12T14:32:44.797Z,98379.53
2023-02-12T14:33:48.940Z,98381.19
2023-02-12T14:34:51.741Z,98374.34
2023-02-12T14:36:32.188Z,98376.31
2023-02-12T14:37:37.996Z,98376.56
2023-02-12T14:38:47.384Z,98379.63
2023-02-12T14:39:49.436Z,98368.63
2023-02-12T14:40:52.564Z,98374.06
2023-02-12T14:42:14.943Z,98371.06
2023-02-12T14:43:56.823Z,98372.84
2023-02-12T14:44:58.815Z,98381.19
2023-02-12T14:46:22.094Z,98377.19
2023-02-12T14:47:29.743Z,98380.22
2023-02-12T14:48:52.207Z,98375.25
2023-02-12T14:49:55.800Z,98378.31
2023-02-12T14:50:57.664Z,98372.41
2023-02-12T14:52:06.638Z,98376.38
2023-02-12T14:53:35.364Z,98375.59
2023-02-12T14:54:50.132Z,98376.94
2023-02-12T14:55:52.490Z,98378.31
2023-02-12T14:56:55.583Z,98372.66
2023-02-12T14:58:00.256Z,98371.91
2023-02-12T14:59:03.840Z,98377.59
2023-02-12T15:00:23.743Z,98370.22
2023-02-12T15:01:36.580Z,98374.13
2023-02-12T15:02:41.703Z,98370.63
2023-02-12T15:03:49.270Z,98372.19
2023-02-12T15:04:52.933Z,98375.31
2023-02-12T15:06:25.067Z,98369.31
2023-02-12T15:07:37.222Z,98368.72
2023-02-12T15:08:48.759Z,98372.00
2023-02-12T15:10:15.353Z,98366.28
2023-02-12T15:11:45.052Z,98369.47
2023-02-12T15:12:57.856Z,98367.03
2023-02-12T15:14:23.755Z,98368.44
2023-02-12T15:15:33.824Z,98364.44
2023-02-12T15:16:47.054Z,98363.13
2023-02-12T15:17:59.218Z,98362.44
2023-02-12T15:19:25.524Z,98366.91
2023-02-12T15:20:37.538Z,98371.75
2023-02-12T15:21:39.316Z,98363.84
2023-02-12T15:22:41.245Z,98372.78
2023-02-12T15:23:44.402Z,98362.31
2023-02-12T15:24:47.014Z,98365.00
2023-02-12T15:25:50.834Z,98370.59
2023-02-12T15:26:58.126Z,98365.81
2023-02-12T15:28:02.701Z,98371.34
2023-02-12T15:29:04.710Z,98364.09
2023-02-12T15:30:08.734Z,98361.94
2023-02-12T15:31:16.825Z,98366.97
2023-02-12T15:32:29.801Z,98367.38
2023-02-12T15:33:33.896Z,98364.75
2023-02-12T15:34:40.027Z,98361.09
2023-02-12T15:35:45.115Z,98364.56
2023-02-12T15:36:46.561Z,98363.47
2023-02-12T15:37:49.559Z,98353.16
2023-02-12T15:39:06.741Z,98360.53
2023-02-12T15:40:14.827Z,98353.44
2023-02-12T15:41:38.496Z,98353.88
2023-02-12T15:42:42.415Z,98352.53
2023-02-12T15:43:43.808Z,98349.44
2023-02-12T15:44:45.210Z,98364.66
2023-02-12T15:45:51.811Z,98352.09
2023-02-12T15:46:58.465Z,98354.69
2023-02-12T15:48:09.103Z,98360.84
2023-02-12T15:49:22.188Z,98357.13
2023-02-12T15:50:24.234Z,98356.81
2023-02-12T15:51:41.474Z,98354.44
2023-02-12T15:52:46.492Z,98356.28
2023-02-12T15:53:48.220Z,98353.91
2023-02-12T15:54:49.820Z,98358.47
2023-02-12T15:55:52.031Z,98359.94
2023-02-12T15:56:54.788Z,98358.53
2023-02-12T15:57:59.913Z,98357.88
2023-02-12T15:59:02.899Z,98362.25
2023-02-12T16:00:09.613Z,98367.19
2023-02-12T16:01:18.995Z,98359.78
2023-02-12T16:02:29.951Z,98368.22
2023-02-12T16:03:32.979Z,98355.81
2023-02-12T16:04:40.534Z,98365.06
2023-02-12T16:05:42.102Z,98355.03
2023-02-12T16:06:43.701Z,98352.59
2023-02-12T16:07:46.618Z,98346.88
2023-02-12T16:09:17.906Z,98357.22
2023-02-12T16:10:20.730Z,98348.44
2023-02-12T16:11:24.069Z,98343.47
2023-02-12T16:12:31.020Z,98351.56
2023-02-12T16:13:34.743Z,98351.72
2023-02-12T16:14:47.144Z,98340.59
2023-02-12T16:16:04.680Z,98348.09
2023-02-12T16:17:27.517Z,98348.69
2023-02-12T16:18:29.170Z,98350.47
2023-02-12T16:19:36.916Z,98349.03
2023-02-12T16:20:38.378Z,98348.34
2023-02-12T16:21:39.942Z,98354.25
2023-02-12T16:22:44.136Z,98345.38
2023-02-12T16:23:48.734Z,98350.50
2023-02-12T16:24:52.436Z,98336.66
2023-02-12T16:25:55.427Z,98353.38
2023-02-12T16:27:01.877Z,98357.06
2023-02-12T16:28:20.768Z,98354.88
2023-02-12T16:29:22.220Z,98363.59
2023-02-12T16:30:28.272Z,98360.84
